KLAR/LAR METAR and TAF weather

Enter ICAO airport designator
Station Type Date Time Source
KLAR METAR 2020/09/19 01:53 UTC NOAA

KLAR 190153Z AUTO 16009KT 8SM CLR 17/01 A3025 RMK AO2 SLP165 T01720006


Station Type Date Time Source
KLAR Decoded METAR 2020/09/19 01:53 UTC NOAA

LARAMIE REGIONAL AIRPORT, WY, United States (KLAR) 41-19N 105-40W 2216M
Sep 18, 2020 - 09:53 PM EDT / 2020.09.19 0153 UTC
Wind: from the SSE (160 degrees) at 10 MPH (9 KT):0
Visibility: 8 mile(s):0
Sky conditions: clear
Temperature: 63.0 F (17.2 C)
Dew Point: 33.1 F (0.6 C)
Relative Humidity: 32%
Pressure (altimeter): 30.25 in. Hg (1024 hPa)
ob: KLAR 190153Z AUTO 16009KT 8SM CLR 17/01 A3025 RMK AO2 SLP165 T01720006
cycle: 2

Station Type Date Time Source
KLAR TAF 2020/09/18 18:24 UTC NOAA

TAF KLAR 181720Z 1818/1918 19010KT 6SM HZ FU FEW250
FM181900 21012G20KT 6SM HZ FU SCT150
FM190100 18008KT 6SM HZ SCT150
FM191700 22013KT 6SM HZ FU BKN180

Example: see airport list